createdAt,value
2022-08-26T00:02:17.304Z,9.23
2022-08-26T00:06:46.313Z,11.47
2022-08-26T00:11:12.679Z,9.30
2022-08-26T00:15:39.280Z,8.27
2022-08-26T00:20:07.989Z,12.20
2022-08-26T00:24:33.368Z,13.17
2022-08-26T00:28:58.601Z,10.57
2022-08-26T00:33:24.094Z,9.57
2022-08-26T00:37:49.939Z,9.03
2022-08-26T00:42:15.279Z,14.10
2022-08-26T00:46:53.095Z,8.60
2022-08-26T00:51:23.608Z,13.90
2022-08-26T00:56:11.407Z,11.03
2022-08-26T01:00:38.677Z,21.37
2022-08-26T01:05:07.597Z,10.60
2022-08-26T01:09:33.662Z,12.97
2022-08-26T01:14:02.725Z,11.30
2022-08-26T01:18:28.318Z,25.97
2022-08-26T01:23:13.556Z,15.17
2022-08-26T01:27:39.460Z,13.23
2022-08-26T01:32:07.840Z,11.73
2022-08-26T01:36:33.219Z,12.10
2022-08-26T01:40:58.597Z,15.70
2022-08-26T01:45:28.897Z,13.63
2022-08-26T01:49:58.152Z,9.70
2022-08-26T01:54:24.920Z,10.73
2022-08-26T01:58:58.404Z,11.93
2022-08-26T02:03:24.841Z,18.93
2022-08-26T02:07:50.819Z,14.67
2022-08-26T02:12:18.720Z,17.03
2022-08-26T02:16:49.126Z,18.77
2022-08-26T02:21:16.350Z,9.33
2022-08-26T02:25:56.833Z,9.97
2022-08-26T02:30:27.371Z,17.23
2022-08-26T02:34:53.374Z,12.10
2022-08-26T02:39:22.019Z,17.20
2022-08-26T02:43:47.619Z,19.87
2022-08-26T02:48:18.881Z,14.23
2022-08-26T02:52:44.178Z,9.77
2022-08-26T02:57:10.565Z,16.03
2022-08-26T03:01:36.681Z,12.10
2022-08-26T03:06:01.990Z,9.43
2022-08-26T03:10:28.320Z,15.13
2022-08-26T03:14:53.759Z,9.37
2022-08-26T03:19:20.548Z,19.03
2022-08-26T03:23:46.007Z,13.00
2022-08-26T03:28:11.260Z,10.37
2022-08-26T03:32:36.849Z,16.80
2022-08-26T03:37:02.687Z,18.30
2022-08-26T03:41:28.049Z,17.03
2022-08-26T03:45:53.609Z,42.57
2022-08-26T03:50:24.366Z,23.73
2022-08-26T03:54:49.836Z,14.40
2022-08-26T03:59:15.010Z,20.20
2022-08-26T04:04:00.291Z,19.33
2022-08-26T04:08:26.021Z,25.57
2022-08-26T04:12:53.582Z,16.43
2022-08-26T04:17:20.066Z,26.80
2022-08-26T04:21:53.046Z,20.60
2022-08-26T04:26:21.582Z,16.60
2022-08-26T04:30:47.036Z,27.97
2022-08-26T04:35:12.653Z,25.90
2022-08-26T04:39:38.152Z,27.47
2022-08-26T04:44:04.788Z,19.23
2022-08-26T04:48:32.133Z,18.97
2022-08-26T04:52:57.367Z,23.67
2022-08-26T04:57:23.263Z,20.63
2022-08-26T05:01:51.914Z,25.70
2022-08-26T05:06:19.568Z,22.90
2022-08-26T05:10:49.464Z,22.27
2022-08-26T05:15:14.975Z,21.53
2022-08-26T05:19:43.068Z,25.50
2022-08-26T05:24:11.960Z,25.00
2022-08-26T05:28:37.652Z,19.97
2022-08-26T05:33:04.010Z,19.07
2022-08-26T05:37:29.334Z,20.43
2022-08-26T05:41:54.790Z,19.23
2022-08-26T05:46:20.160Z,30.63
2022-08-26T05:50:49.611Z,22.90
2022-08-26T05:55:15.943Z,24.23
2022-08-26T05:59:44.552Z,18.83
2022-08-26T06:04:12.210Z,18.30
2022-08-26T06:08:38.276Z,22.23
2022-08-26T06:13:11.850Z,18.70
2022-08-26T06:17:37.552Z,17.87
2022-08-26T06:22:23.858Z,19.30
2022-08-26T06:26:53.548Z,16.23
2022-08-26T06:31:18.914Z,17.40
2022-08-26T06:35:46.954Z,17.67
2022-08-26T06:40:13.691Z,17.77
2022-08-26T06:44:38.969Z,19.80
2022-08-26T06:49:06.459Z,20.10
2022-08-26T06:53:33.565Z,20.57
2022-08-26T06:58:00.005Z,18.50
2022-08-26T07:02:25.443Z,16.27
2022-08-26T07:06:54.361Z,20.63
2022-08-26T07:11:20.463Z,25.03
2022-08-26T07:15:45.932Z,21.27
2022-08-26T07:20:11.938Z,25.17
2022-08-26T07:24:41.127Z,19.47
2022-08-26T07:29:07.831Z,19.43
2022-08-26T07:33:33.052Z,17.90
2022-08-26T07:37:58.435Z,18.10
2022-08-26T07:42:23.701Z,19.20
2022-08-26T07:46:52.326Z,16.97
2022-08-26T07:51:21.634Z,19.00
2022-08-26T07:55:47.837Z,18.17
2022-08-26T08:00:16.163Z,17.13
2022-08-26T08:04:41.422Z,19.17
2022-08-26T08:09:06.988Z,17.10
2022-08-26T08:13:32.431Z,17.53
2022-08-26T08:18:00.685Z,22.80
2022-08-26T08:22:26.366Z,19.40
2022-08-26T08:26:52.530Z,17.00
2022-08-26T08:31:52.000Z,15.33
2022-08-26T08:36:18.439Z,18.33
2022-08-26T08:40:46.068Z,17.40
2022-08-26T08:45:47.164Z,19.00
2022-08-26T08:50:23.834Z,17.47
2022-08-26T08:54:50.097Z,18.77
2022-08-26T08:59:24.213Z,12.90
2022-08-26T09:03:58.270Z,15.53
2022-08-26T09:08:32.785Z,14.37
2022-08-26T09:13:00.181Z,14.90
2022-08-26T09:17:38.909Z,15.80
2022-08-26T09:22:08.798Z,14.10
2022-08-26T09:26:42.976Z,15.67
2022-08-26T09:31:13.387Z,11.47
2022-08-26T09:35:45.487Z,15.63
2022-08-26T09:40:22.720Z,19.53
2022-08-26T10:12:16.475Z,18.93
2022-08-26T10:16:52.577Z,12.10
2022-08-26T10:21:32.698Z,13.67
2022-08-26T10:26:23.964Z,14.80
2022-08-26T10:31:04.097Z,17.30
2022-08-26T10:35:31.202Z,18.77
2022-08-26T10:40:05.559Z,14.90
2022-08-26T10:44:37.385Z,13.77
2022-08-26T10:49:13.075Z,16.70
2022-08-26T10:53:51.632Z,12.43
2022-08-26T10:58:38.059Z,13.67
2022-08-26T18:04:00.229Z,28.07
2022-08-26T18:08:26.304Z,43.33
2022-08-26T18:12:51.633Z,38.23
2022-08-26T18:17:19.422Z,24.37
2022-08-26T18:21:45.017Z,24.40
2022-08-26T18:26:19.134Z,30.23
2022-08-26T18:30:45.508Z,32.47
2022-08-26T18:35:11.300Z,28.13
2022-08-26T18:39:36.490Z,28.00
2022-08-26T18:44:01.723Z,26.47
2022-08-26T18:48:27.079Z,32.60
2022-08-26T18:52:52.419Z,33.00
2022-08-26T18:57:17.612Z,25.10
2022-08-26T19:01:43.627Z,33.27
2022-08-26T19:06:13.596Z,30.57
2022-08-26T19:10:39.920Z,22.77
2022-08-26T19:15:06.802Z,30.10
2022-08-26T19:19:32.544Z,27.17
2022-08-26T19:24:00.967Z,31.00
2022-08-26T19:28:26.164Z,25.33
2022-08-26T19:32:51.395Z,29.27
2022-08-26T19:37:19.851Z,24.73
2022-08-26T19:41:45.141Z,30.13
2022-08-26T19:46:17.338Z,30.37
2022-08-26T19:50:42.837Z,24.93
2022-08-26T19:55:10.690Z,26.97
2022-08-26T19:59:36.338Z,29.67
2022-08-26T20:04:01.580Z,28.17
2022-08-26T20:08:26.790Z,28.23
2022-08-26T20:12:52.875Z,26.87
2022-08-26T20:17:18.083Z,35.13
2022-08-26T20:21:43.679Z,23.97
2022-08-26T20:26:08.919Z,27.93
2022-08-26T20:30:34.298Z,34.77
2022-08-26T20:35:00.342Z,35.03
2022-08-26T20:39:29.398Z,28.77
2022-08-26T20:43:55.590Z,38.60
2022-08-26T20:48:20.854Z,38.47
2022-08-26T20:52:46.446Z,42.87
2022-08-26T20:57:11.682Z,44.27
2022-08-26T21:01:42.063Z,32.10
2022-08-26T21:06:08.164Z,31.67
2022-08-26T21:10:33.559Z,32.60
2022-08-26T21:14:59.404Z,33.53
2022-08-26T21:19:24.720Z,33.70
2022-08-26T21:23:49.955Z,31.87
2022-08-26T21:28:16.159Z,43.53
2022-08-26T21:32:41.638Z,33.23
2022-08-26T21:37:13.266Z,40.80
2022-08-26T21:41:43.777Z,31.60
2022-08-26T21:46:14.573Z,31.50
2022-08-26T21:50:39.962Z,32.67
2022-08-26T21:55:09.016Z,46.67
2022-08-26T21:59:37.787Z,32.60
2022-08-26T22:04:05.196Z,31.77
2022-08-26T22:08:30.584Z,33.70
2022-08-26T22:12:56.546Z,33.37
2022-08-26T22:17:22.450Z,43.50
2022-08-26T22:21:50.643Z,37.10
2022-08-26T22:26:25.296Z,37.40
2022-08-26T22:30:51.086Z,39.60
2022-08-26T22:35:28.289Z,34.70
2022-08-26T22:39:54.674Z,36.97
2022-08-26T22:44:22.365Z,43.17
2022-08-26T22:48:53.713Z,45.77
2022-08-26T22:53:19.287Z,42.10
